Latest Coastal Weather Observations for Rundle Island

IDQ60701

Issued at 3:25 am EST Wednesday 17 September 2014 (issued every 10 minutes, with the page automatically refreshed every 10 minutes)

About coastal observations | Map of coastal stations | Coastal observations for QLD | Marine services | Other Formats
Station Details ID: 039322 Name: RUNDLE ISLAND Lat: -23.53 Lon: 151.28 Height: 19.8 m
Data from the previous 72 hours. | See also: Recent months at Rundle Island
Date/Time
EST
Temp

°C
Wind Pressure Rain
since 9am
mm
Weather Cloud Vis
km
Sea
Height
m
Swell
Dir
 
Speed
knots
Gust
knots
hPa Trend Height
m
Period
s
Dir
17/03:00am 20.4 NNW 16 18 1014.5 - - - - - - - - -
17/02:30am 20.5 NNW 14 17 1014.7 - - - - - - - - -
17/02:00am 20.5 N 14 15 1014.8 - - - - - - - - -
17/01:30am 20.5 N 14 15 1014.9 - - - - - - - - -
17/01:00am 20.5 N 14 16 1014.9 - - - - - - - - -
17/12:30am 20.5 N 13 15 1015.4 - - - - - - - - -
17/12:00am 20.7 N 14 16 1015.9 - - - - - - - - -
 
Date/Time
EST
Temp

°C
Wind Pressure Rain
since 9am
mm
Weather Cloud Vis
km
Sea
Height
m
Swell
Dir
 
Speed
knots
Gust
knots
hPa Trend Height
m
Period
s
Dir
16/11:30pm 20.7 N 14 16 1016.3 - - - - - - - - -
16/11:00pm 20.9 N 14 16 1016.3 - - - - - - - - -
16/10:30pm 21.0 N 13 16 1016.4 - - - - - - - - -
16/10:00pm 21.0 N 13 16 1016.4 - - - - - - - - -
16/09:30pm 21.1 N 13 15 1016.2 - - - - - - - - -
16/09:00pm 21.2 N 13 15 1015.9 - - - - - - - - -
16/08:30pm 21.2 N 13 14 1015.7 - - - - - - - - -
16/08:00pm 21.3 N 13 14 1015.2 - - - - - - - - -
16/07:30pm 21.2 N 12 14 1014.8 - - - - - - - - -
16/07:00pm 21.2 N 12 14 1014.5 - - - - - - - - -
16/06:30pm 21.1 NNE 14 16 1014.2 - - - - - - - - -
16/06:00pm 21.1 NNE 12 14 1014.2 - - - - - - - - -
16/05:30pm 21.3 NNE 11 13 1014.0 - - - - - - - - -
16/05:00pm 21.4 NNE 11 12 1014.0 - - - - - - - - -
16/04:30pm 21.5 N 10 11 1013.9 - - - - - - - - -
16/04:00pm 21.5 N 9 10 1014.0 - - - - - - - - -
16/03:30pm 21.3 N 7 8 1014.2 - - - - - - - - -
16/03:00pm 21.1 N 6 7 1014.3 - - - - - - - - -
16/02:30pm 21.0 N 7 8 1014.5 - - - - - - - - -
16/02:00pm 21.2 N 7 8 1014.7 - - - - - - - - -
16/01:30pm 20.9 N 7 8 1015.1 - - - - - - - - -
16/01:00pm 20.8 N 8 9 1015.5 - - - - - - - - -
16/12:30pm 21.3 N 7 8 1016.1 - - - - - - - - -
16/12:00pm 20.9 N 7 8 1016.6 - - - - - - - - -
16/11:30am 21.2 NNW 7 8 1017.2 - - - - - - - - -
16/11:00am 21.5 NNW 7 8 1017.7 - - - - - - - - -
16/10:30am 21.2 NNW 6 7 1018.1 - - - - - - - - -
16/10:00am 21.3 NNW 5 6 1018.5 - - - - - - - - -
16/09:30am 20.9 NNW 2 4 1018.7 - - - - - - - - -
16/09:00am 22.2 CALM 0 0 1018.9 - - - - - - - - -
16/08:30am 20.6 SSW 3 4 1018.9 - - - - - - - - -
16/08:00am 19.1 WSW 4 5 1018.7 - - - - - - - - -
16/07:30am 18.8 SW 3 4 1018.4 - - - - - - - - -
16/07:00am 18.6 SW 3 4 1018.2 - - - - - - - - -
16/06:30am 18.2 SW 4 5 1017.9 - - - - - - - - -
16/06:00am 18.2 SW 5 5 1017.5 - - - - - - - - -
16/05:30am 18.6 SW 5 5 1017.2 - - - - - - - - -
16/05:00am 19.3 SW 3 5 1016.8 - - - - - - - - -
16/04:30am 20.4 N 3 4 1016.4 - - - - - - - - -
16/04:00am 20.4 N 4 5 1016.2 - - - - - - - - -
16/03:30am 20.4 N 4 5 1016.0 - - - - - - - - -
16/03:00am 20.5 N 5 5 1016.1 - - - - - - - - -
16/02:30am 20.5 N 4 4 1016.2 - - - - - - - - -
16/02:00am 20.5 NNE 5 6 1016.1 - - - - - - - - -
16/01:30am 20.5 NNE 4 5 1016.3 - - - - - - - - -
16/01:00am 20.6 NNE 5 5 1016.5 - - - - - - - - -
16/12:30am 20.6 NE 5 5 1016.6 - - - - - - - - -
16/12:00am 20.6 NE 6 7 1017.0 - - - - - - - - -
 
Date/Time
EST
Temp

°C
Wind Pressure Rain
since 9am
mm
Weather Cloud Vis
km
Sea
Height
m
Swell
Dir
 
Speed
knots
Gust
knots
hPa Trend Height
m
Period
s
Dir
15/11:30pm 20.7 NE 6 7 1017.2 - - - - - - - - -
15/11:00pm 20.7 NE 6 7 1017.3 - - - - - - - - -
15/10:30pm 20.7 NE 8 9 1017.4 - - - - - - - - -
15/10:00pm 20.6 ENE 7 8 1017.3 - - - - - - - - -
15/09:30pm 20.7 NE 8 11 1017.3 - - - - - - - - -
15/09:00pm 20.7 NE 8 9 1017.3 - - - - - - - - -
15/08:30pm 20.6 ENE 8 9 1017.2 - - - - - - - - -
15/08:00pm 20.5 ENE 8 9 1017.1 - - - - - - - - -
15/07:30pm 20.2 ENE 4 5 1017.1 - - - - - - - - -
15/07:00pm 20.3 ENE 7 8 1016.8 - - - - - - - - -
15/06:30pm 20.3 ENE 9 10 1016.4 - - - - - - - - -
15/06:00pm 20.4 ENE 8 9 1016.1 - - - - - - - - -
15/05:30pm 20.5 ENE 7 9 1015.8 - - - - - - - - -
15/05:00pm 20.8 ENE 7 8 1015.7 - - - - - - - - -
15/04:30pm 21.1 ENE 6 7 1015.5 - - - - - - - - -
15/04:00pm 21.0 E 6 7 1015.6 - - - - - - - - -
15/03:30pm 21.1 E 6 7 1015.5 - - - - - - - - -
15/03:00pm 21.2 E 6 8 1015.6 - - - - - - - - -
15/02:30pm 21.3 E 5 6 1015.7 - - - - - - - - -
15/02:00pm 21.6 ESE 5 6 1016.0 - - - - - - - - -
15/01:30pm 21.6 ESE 6 7 1016.5 - - - - - - - - -
15/01:00pm 21.3 ESE 6 7 1016.7 - - - - - - - - -
15/12:30pm 21.1 SE 6 6 1017.3 - - - - - - - - -
15/12:00pm 21.0 SE 6 7 1017.7 - - - - - - - - -
15/11:30am 20.3 SSE 7 9 1018.2 - - - - - - - - -
15/11:00am 20.5 SSE 8 9 1018.5 - - - - - - - - -
15/10:30am 20.5 SSE 8 9 1018.9 - - - - - - - - -
15/10:00am 20.6 SSE 9 11 1019.2 - - - - - - - - -
15/09:30am 20.0 SSE 10 11 1019.5 - - - - - - - - -
15/09:00am 19.9 S 10 12 1019.6 - - - - - - - - -
15/08:30am 19.5 S 10 11 1019.6 - - - - - - - - -
15/08:00am 19.2 S 10 12 1019.4 - - - - - - - - -
15/07:30am 18.4 S 11 12 1019.1 - - - - - - - - -
15/07:00am 18.0 S 11 12 1018.9 - - - - - - - - -
15/06:30am 18.1 S 10 11 1018.7 - - - - - - - - -
15/06:00am 18.1 S 11 12 1018.6 - - - - - - - - -
15/05:30am 18.1 S 10 11 1018.2 - - - - - - - - -
15/05:00am 18.1 S 11 12 1018.2 - - - - - - - - -
15/04:30am 18.9 SSE 9 10 1017.9 - - - - - - - - -
15/04:00am 19.4 SSE 9 10 1017.7 - - - - - - - - -
15/03:30am 19.6 SE 10 11 1017.6 - - - - - - - - -
15/03:00am 19.6 SE 10 11 1017.5 - - - - - - - - -
15/02:30am 19.6 SE 11 12 1017.7 - - - - - - - - -
15/02:00am 19.8 SSE 11 13 1018.2 - - - - - - - - -
15/01:30am 19.8 SSE 12 14 1018.4 - - - - - - - - -
15/01:00am 20.1 SE 11 13 1018.6 - - - - - - - - -
15/12:30am 20.3 SE 12 13 1018.7 - - - - - - - - -
15/12:00am 20.4 SE 12 13 1018.9 - - - - - - - - -
 
Date/Time
EST
Temp

°C
Wind Pressure Rain
since 9am
mm
Weather Cloud Vis
km
Sea
Height
m
Swell
Dir
 
Speed
knots
Gust
knots
hPa Trend Height
m
Period
s
Dir
14/11:30pm 20.5 ESE 12 14 1019.2 - - - - - - - - -
14/11:00pm 20.4 ESE 13 15 1019.2 - - - - - - - - -
14/10:30pm 20.4 ESE 13 15 1019.2 - - - - - - - - -
14/10:00pm 20.4 ESE 13 15 1019.4 - - - - - - - - -
14/09:30pm 20.5 ESE 14 16 1019.4 - - - - - - - - -
14/09:00pm 20.5 ESE 15 16 1019.3 - - - - - - - - -
14/08:30pm 20.6 ESE 15 17 1019.2 - - - - - - - - -
14/08:00pm 20.6 ESE 16 19 1019.0 - - - - - - - - -
14/07:30pm 20.6 ESE 16 18 1018.9 - - - - - - - - -
14/07:00pm 20.6 ESE 17 19 1018.5 - - - - - - - - -
14/06:30pm 20.6 ESE 17 20 1018.2 - - - - - - - - -
14/06:00pm 20.6 ESE 16 18 1018.5 - - - - - - - - -
14/05:30pm 20.8 ESE 15 18 1018.5 - - - - - - - - -
14/05:00pm 20.9 ESE 16 18 1018.4 - - - - - - - - -
14/04:30pm 20.9 ESE 16 19 1018.1 - - - - - - - - -
14/04:00pm 20.4 E 15 18 1018.0 - - - - - - - - -
14/03:30pm 20.6 E 17 20 1017.8 - - - - - - - - -
14/03:00pm 20.9 ESE 20 23 1017.7 - - - - - - - - -
14/02:30pm 20.7 ESE 19 22 1018.1 - - - - - - - - -
14/02:00pm 20.7 SE 17 19 1018.5 - - - - - - - - -
14/01:30pm 20.5 SE 19 21 1018.8 - - - - - - - - -
14/01:00pm 20.7 SE 18 21 1019.2 - - - - - - - - -
14/12:30pm 20.5 SE 18 20 1019.4 - - - - - - - - -
14/12:00pm 20.5 SE 18 20 1019.8 - - - - - - - - -
14/11:30am 20.8 SE 19 22 1020.1 - - - - - - - - -
14/11:00am 20.7 SE 19 22 1020.2 - - - - - - - - -
14/10:30am 20.6 SSE 19 22 1020.4 - - - - - - - - -
14/10:00am 20.6 SSE 18 21 1020.4 - - - - - - - - -
14/09:30am 20.1 SSE 15 18 1020.7 - - - - - - - - -
14/09:00am 20.1 SSE 16 19 1020.6 - - - - - - - - -
14/08:30am 19.6 SSE 18 19 1020.4 - - - - - - - - -
14/08:00am 19.5 SSE 17 19 1020.4 - - - - - - - - -
14/07:30am 19.5 SSE 18 21 1019.9 - - - - - - - - -
14/07:00am 19.0 SSE 17 20 1019.5 - - - - - - - - -
14/06:30am 19.0 SSE 19 22 1019.1 - - - - - - - - -
14/06:00am 19.2 SSE 18 22 1019.0 - - - - - - - - -
14/05:30am 19.1 SSE 19 21 1018.9 - - - - - - - - -
14/05:00am 18.8 S 17 20 1018.6 - - - - - - - - -
14/04:30am 18.7 SSE 17 19 1018.4 - - - - - - - - -
14/04:00am 18.8 S 17 19 1018.6 - - - - - - - - -
14/03:30am 18.9 S 16 18 1018.8 - - - - - - - - -

Other Formats:

Comma delimited format used in spreadsheet applications
http://www.bom.gov.au/fwo/IDQ60701/IDQ60701.94378.axf

JavaScript Object Notation format (JSON) in row-major order
http://www.bom.gov.au/fwo/IDQ60701/IDQ60701.94378.json